createdAt,value
2023-05-15T00:00:50.388Z,500.00
2023-05-15T00:01:50.389Z,454.00
2023-05-15T00:02:50.495Z,432.00
2023-05-15T00:03:50.398Z,426.00
2023-05-15T00:04:50.392Z,434.00
2023-05-15T00:05:50.412Z,456.00
2023-05-15T00:06:50.372Z,480.00
2023-05-15T00:07:50.370Z,500.00
2023-05-15T00:08:50.378Z,500.00
2023-05-15T00:09:50.387Z,504.00
2023-05-15T00:11:00.967Z,502.00
2023-05-15T00:11:50.400Z,502.00
2023-05-15T00:12:50.368Z,490.00
2023-05-15T00:13:50.408Z,472.00
2023-05-15T00:14:50.359Z,458.00
2023-05-15T00:15:50.359Z,449.00
2023-05-15T00:16:50.345Z,484.00
2023-05-15T00:17:50.353Z,500.00
2023-05-15T00:18:50.349Z,500.00
2023-05-15T00:19:50.324Z,502.00
2023-05-15T00:20:50.313Z,502.00
2023-05-15T00:21:50.311Z,500.00
2023-05-15T00:22:50.298Z,500.00
2023-05-15T00:23:50.296Z,500.00
2023-05-15T00:24:50.288Z,504.00
2023-05-15T00:25:50.284Z,500.00
2023-05-15T00:26:50.274Z,502.00
2023-05-15T00:27:50.300Z,502.00
2023-05-15T00:28:50.255Z,504.00
2023-05-15T00:29:50.250Z,504.00
2023-05-15T00:30:50.245Z,503.00
2023-05-15T00:31:50.320Z,501.00
2023-05-15T00:32:50.259Z,503.00
2023-05-15T00:33:50.230Z,508.00
2023-05-15T00:34:50.218Z,505.00
2023-05-15T00:35:50.213Z,504.00
2023-05-15T00:36:50.202Z,507.00
2023-05-15T00:37:50.196Z,502.00
2023-05-15T00:38:50.201Z,506.00
2023-05-15T00:39:50.182Z,508.00
2023-05-15T00:40:50.184Z,504.00
2023-05-15T00:41:50.170Z,500.00
2023-05-15T00:42:50.167Z,504.00
2023-05-15T00:43:50.181Z,504.00
2023-05-15T00:44:50.149Z,500.00
2023-05-15T00:45:50.143Z,502.00
2023-05-15T00:46:50.183Z,502.00
2023-05-15T00:47:50.204Z,503.00
2023-05-15T00:48:50.128Z,504.00
2023-05-15T00:49:50.123Z,504.00
2023-05-15T00:50:50.114Z,504.00
2023-05-15T00:51:50.110Z,507.00
2023-05-15T00:52:50.103Z,502.00
2023-05-15T00:53:50.182Z,506.00
2023-05-15T00:54:50.085Z,508.00
2023-05-15T00:55:50.091Z,505.00
2023-05-15T00:56:50.071Z,502.00
2023-05-15T00:57:50.067Z,502.00
2023-05-15T00:58:50.054Z,509.00
2023-05-15T00:59:50.076Z,502.00
2023-05-15T01:00:50.082Z,504.00
2023-05-15T01:01:50.045Z,506.00
2023-05-15T01:02:50.246Z,503.00
2023-05-15T01:03:50.026Z,501.00
2023-05-15T01:04:50.019Z,504.00
2023-05-15T01:05:50.014Z,500.00
2023-05-15T01:06:49.999Z,509.00
2023-05-15T01:07:50.001Z,503.00
2023-05-15T01:08:49.996Z,506.00
2023-05-15T01:09:49.982Z,501.00
2023-05-15T01:10:49.976Z,506.00
2023-05-15T01:11:49.971Z,500.00
2023-05-15T01:12:49.968Z,507.00
2023-05-15T01:13:49.972Z,501.00
2023-05-15T01:14:49.947Z,506.00
2023-05-15T01:15:49.965Z,505.00
2023-05-15T01:16:49.955Z,501.00
2023-05-15T01:17:49.936Z,505.00
2023-05-15T01:18:50.010Z,505.00
2023-05-15T01:19:50.130Z,503.00
2023-05-15T01:20:49.909Z,504.00
2023-05-15T01:21:49.896Z,501.00
2023-05-15T01:22:49.890Z,508.00
2023-05-15T01:23:49.877Z,506.00
2023-05-15T01:24:49.880Z,508.00
2023-05-15T01:25:49.872Z,506.00
2023-05-15T01:26:49.864Z,500.00
2023-05-15T01:27:49.882Z,503.00
2023-05-15T01:28:49.847Z,508.00
2023-05-15T01:29:49.846Z,500.00
2023-05-15T01:30:49.838Z,507.00
2023-05-15T01:31:49.901Z,502.00
2023-05-15T01:32:49.836Z,508.00
2023-05-15T01:33:49.808Z,510.00
2023-05-15T01:34:49.804Z,500.00
2023-05-15T01:35:49.797Z,504.00
2023-05-15T01:36:49.808Z,501.00
2023-05-15T01:37:49.781Z,505.00
2023-05-15T01:38:49.772Z,503.00
2023-05-15T01:39:49.766Z,505.00
2023-05-15T01:40:49.769Z,500.00
2023-05-15T01:41:49.776Z,504.00
2023-05-15T01:42:49.792Z,504.00
2023-05-15T01:43:49.799Z,505.00
2023-05-15T01:44:49.807Z,506.00
2023-05-15T01:45:49.824Z,500.00
2023-05-15T01:46:50.036Z,507.00
2023-05-15T01:47:50.320Z,500.00
2023-05-15T01:48:49.856Z,507.00
2023-05-15T01:49:49.873Z,501.00
2023-05-15T01:50:49.880Z,499.00
2023-05-15T01:51:49.892Z,503.00
2023-05-15T01:52:49.901Z,504.00
2023-05-15T01:53:49.916Z,510.00
2023-05-15T01:54:49.925Z,508.00
2023-05-15T01:55:49.942Z,507.00
2023-05-15T01:56:49.961Z,508.00
2023-05-15T01:57:49.983Z,509.00
2023-05-15T01:58:49.981Z,511.00
2023-05-15T01:59:49.992Z,504.00
2023-05-15T02:00:50.000Z,506.00
2023-05-15T02:01:50.065Z,502.00
2023-05-15T02:02:50.136Z,509.00
2023-05-15T02:03:50.261Z,511.00
2023-05-15T02:04:50.057Z,507.00
2023-05-15T02:05:50.064Z,504.00
2023-05-15T02:06:50.084Z,503.00
2023-05-15T02:07:50.093Z,507.00
2023-05-15T02:08:50.118Z,502.00
2023-05-15T02:09:50.122Z,504.00
2023-05-15T02:10:50.146Z,507.00
2023-05-15T02:11:50.165Z,503.00
2023-05-15T02:12:50.171Z,508.00
2023-05-15T02:13:50.187Z,508.00
2023-05-15T02:14:50.206Z,503.00
2023-05-15T02:15:50.259Z,507.00
2023-05-15T02:16:50.327Z,507.00
2023-05-15T02:17:50.270Z,502.00
2023-05-15T02:18:50.283Z,504.00
2023-05-15T02:19:50.298Z,504.00
2023-05-15T02:20:50.284Z,505.00
2023-05-15T02:21:50.308Z,511.00
2023-05-15T02:22:50.331Z,507.00
2023-05-15T02:23:50.347Z,507.00
2023-05-15T02:24:50.403Z,506.00
2023-05-15T02:25:50.432Z,503.00
2023-05-15T02:26:50.420Z,507.00
2023-05-15T02:27:50.434Z,509.00
2023-05-15T02:28:50.438Z,504.00
2023-05-15T02:29:50.467Z,509.00
2023-05-15T02:30:50.478Z,507.00
2023-05-15T02:31:50.533Z,501.00
2023-05-15T02:32:50.567Z,510.00
2023-05-15T02:33:50.558Z,510.00
2023-05-15T02:34:50.578Z,503.00
2023-05-15T02:35:50.678Z,506.00
2023-05-15T02:36:50.622Z,505.00
2023-05-15T02:37:50.657Z,508.00
2023-05-15T02:38:50.698Z,511.00
2023-05-15T02:39:50.698Z,511.00
2023-05-15T02:40:50.735Z,506.00
2023-05-15T02:41:50.750Z,508.00
2023-05-15T02:42:50.778Z,506.00
2023-05-15T02:43:50.804Z,505.00
2023-05-15T02:44:50.823Z,506.00
2023-05-15T02:45:50.926Z,502.00
2023-05-15T02:46:50.884Z,506.00
2023-05-15T02:47:50.935Z,512.00
2023-05-15T02:48:50.932Z,510.00
2023-05-15T02:49:50.945Z,510.00
2023-05-15T02:50:50.964Z,512.00
2023-05-15T02:51:51.015Z,510.00
2023-05-15T02:52:51.009Z,506.00
2023-05-15T02:53:51.038Z,505.00
2023-05-15T02:54:51.046Z,506.00
2023-05-15T02:55:51.071Z,504.00
2023-05-15T02:56:51.102Z,507.00
2023-05-15T02:57:51.123Z,508.00
2023-05-15T02:58:51.134Z,507.00
2023-05-15T02:59:51.159Z,507.00
2023-05-15T03:00:51.206Z,508.00
2023-05-15T03:01:51.196Z,508.00
2023-05-15T03:02:51.276Z,507.00
2023-05-15T03:03:51.301Z,505.00
2023-05-15T03:04:51.262Z,507.00
2023-05-15T03:05:51.288Z,510.00
2023-05-15T03:06:51.601Z,510.00
2023-05-15T03:07:51.365Z,505.00
2023-05-15T03:08:51.361Z,504.00
2023-05-15T03:09:51.387Z,509.00
2023-05-15T03:10:51.680Z,508.00
2023-05-15T03:11:51.439Z,509.00
2023-05-15T03:12:51.514Z,512.00
2023-05-15T03:13:51.481Z,511.00
2023-05-15T03:14:51.507Z,507.00
2023-05-15T03:15:51.538Z,506.00
2023-05-15T03:16:51.647Z,503.00
2023-05-15T03:17:51.630Z,506.00
2023-05-15T03:18:51.659Z,507.00
2023-05-15T03:19:51.628Z,507.00
2023-05-15T03:20:51.652Z,506.00
2023-05-15T03:21:52.031Z,507.00
2023-05-15T03:22:52.066Z,513.00
2023-05-15T03:23:52.084Z,513.00
2023-05-15T03:24:52.061Z,507.00
2023-05-15T03:25:52.068Z,509.00
2023-05-15T03:26:52.068Z,508.00
2023-05-15T03:27:52.065Z,509.00
2023-05-15T03:28:52.072Z,510.00
2023-05-15T03:29:52.064Z,505.00
2023-05-15T03:30:52.107Z,505.00
2023-05-15T03:31:52.113Z,511.00
2023-05-15T03:32:52.112Z,508.00
2023-05-15T03:33:52.073Z,508.00
2023-05-15T03:34:52.069Z,511.00
2023-05-15T03:35:52.137Z,510.00
2023-05-15T03:36:52.083Z,511.00
2023-05-15T03:37:52.072Z,510.00
2023-05-15T03:38:52.101Z,509.00
2023-05-15T03:39:52.110Z,506.00
2023-05-15T03:40:52.112Z,506.00
2023-05-15T03:41:52.140Z,507.00
2023-05-15T03:42:52.160Z,510.00
2023-05-15T03:43:52.187Z,509.00
2023-05-15T03:44:52.213Z,512.00
2023-05-15T03:45:52.234Z,506.00
2023-05-15T03:46:52.321Z,508.00
2023-05-15T03:47:52.376Z,507.00
2023-05-15T03:48:52.309Z,510.00
2023-05-15T03:49:52.334Z,509.00
2023-05-15T03:50:52.374Z,507.00
2023-05-15T03:51:52.385Z,506.00
2023-05-15T03:52:52.444Z,510.00
2023-05-15T03:53:52.441Z,510.00
2023-05-15T03:54:52.483Z,506.00
2023-05-15T03:55:52.538Z,507.00
2023-05-15T03:56:52.548Z,506.00
2023-05-15T03:57:52.572Z,510.00
2023-05-15T03:58:52.626Z,503.00
2023-05-15T03:59:52.641Z,507.00
2023-05-15T04:00:52.669Z,506.00
2023-05-15T04:02:04.238Z,507.00
2023-05-15T04:02:53.429Z,508.00
2023-05-15T04:03:53.044Z,510.00
2023-05-15T04:04:53.067Z,508.00
2023-05-15T04:05:52.668Z,510.00
2023-05-15T04:06:52.668Z,513.00
2023-05-15T04:07:52.668Z,506.00
2023-05-15T04:08:52.652Z,509.00
2023-05-15T04:09:52.642Z,508.00
2023-05-15T04:10:52.653Z,506.00
2023-05-15T04:11:52.650Z,504.00
2023-05-15T04:12:52.628Z,506.00
2023-05-15T04:13:52.627Z,502.00
2023-05-15T04:14:52.608Z,511.00
2023-05-15T04:15:52.614Z,505.00
2023-05-15T04:16:52.635Z,508.00
2023-05-15T04:17:52.706Z,507.00
2023-05-15T04:18:52.651Z,503.00
2023-05-15T04:19:52.561Z,506.00
2023-05-15T04:20:52.558Z,506.00
2023-05-15T04:21:52.558Z,505.00
2023-05-15T04:22:52.599Z,509.00
2023-05-15T04:23:52.594Z,506.00
2023-05-15T04:24:52.631Z,511.00
2023-05-15T04:25:52.665Z,506.00
2023-05-15T04:26:52.775Z,512.00
2023-05-15T04:27:53.144Z,506.00
2023-05-15T04:29:03.360Z,509.00
2023-05-15T04:29:53.135Z,510.00
2023-05-15T04:30:53.107Z,511.00
2023-05-15T04:31:53.161Z,510.00
2023-05-15T04:32:53.188Z,511.00
2023-05-15T04:33:53.113Z,514.00
2023-05-15T04:34:53.100Z,508.00
2023-05-15T04:35:53.070Z,509.00
2023-05-15T04:36:53.061Z,512.00
2023-05-15T04:37:52.694Z,506.00
2023-05-15T04:38:52.740Z,509.00
2023-05-15T04:39:52.683Z,507.00
2023-05-15T04:40:52.688Z,506.00
2023-05-15T04:41:52.666Z,504.00
2023-05-15T04:42:52.660Z,509.00
2023-05-15T04:43:52.675Z,512.00
2023-05-15T04:44:52.677Z,509.00
2023-05-15T04:45:52.693Z,509.00
2023-05-15T04:46:52.640Z,505.00
2023-05-15T04:47:52.642Z,507.00
2023-05-15T04:48:52.615Z,508.00
2023-05-15T04:49:52.595Z,509.00
2023-05-15T04:50:52.602Z,508.00
2023-05-15T04:51:52.583Z,508.00
2023-05-15T04:52:52.586Z,512.00
2023-05-15T04:53:52.573Z,511.00
2023-05-15T04:54:52.579Z,511.00
2023-05-15T04:55:53.130Z,509.00
2023-05-15T04:56:52.549Z,510.00
2023-05-15T04:57:52.587Z,512.00
2023-05-15T04:58:52.617Z,510.00
2023-05-15T04:59:52.712Z,509.00
2023-05-15T05:00:52.694Z,507.00
2023-05-15T05:01:53.179Z,510.00
2023-05-15T05:02:53.170Z,506.00
2023-05-15T05:03:53.208Z,505.00
2023-05-15T05:04:53.147Z,506.00
2023-05-15T05:05:53.130Z,512.00
2023-05-15T05:06:53.638Z,508.00
2023-05-15T05:07:53.134Z,507.00
2023-05-15T05:08:53.141Z,505.00
2023-05-15T05:09:53.137Z,507.00
2023-05-15T05:10:53.159Z,507.00
2023-05-15T05:11:53.150Z,505.00
2023-05-15T05:12:53.192Z,508.00
2023-05-15T05:13:53.233Z,502.00
2023-05-15T05:14:53.272Z,506.00
2023-05-15T05:15:53.403Z,505.00
2023-05-15T05:16:53.435Z,502.00
2023-05-15T05:17:53.490Z,507.00
2023-05-15T05:18:53.464Z,508.00
2023-05-15T05:19:53.440Z,507.00
2023-05-15T05:20:53.476Z,504.00
2023-05-15T05:21:53.652Z,505.00
2023-05-15T05:22:53.550Z,517.00
2023-05-15T05:23:53.583Z,516.00
2023-05-15T05:24:53.617Z,520.00
2023-05-15T05:25:53.645Z,518.00
2023-05-15T05:26:54.142Z,496.00
2023-05-15T05:27:53.785Z,501.00
2023-05-15T05:28:54.154Z,501.00
2023-05-15T05:29:53.776Z,500.00
2023-05-15T05:30:53.816Z,500.00
2023-05-15T05:31:54.240Z,500.00
2023-05-15T05:32:53.898Z,505.00
2023-05-15T05:33:54.029Z,504.00
2023-05-15T05:34:53.949Z,502.00
2023-05-15T05:35:54.020Z,507.00
2023-05-15T05:36:54.158Z,505.00
2023-05-15T05:37:54.106Z,505.00
2023-05-15T05:38:54.128Z,500.00
2023-05-15T05:39:54.151Z,500.00
2023-05-15T05:40:54.156Z,507.00
2023-05-15T05:41:54.650Z,516.00
2023-05-15T05:42:54.153Z,517.00
2023-05-15T05:43:54.193Z,524.00
2023-05-15T05:44:54.217Z,528.00
2023-05-15T05:45:55.265Z,528.00
2023-05-15T05:46:54.664Z,530.00
2023-05-15T05:47:54.396Z,572.00
2023-05-15T05:48:54.347Z,582.00
2023-05-15T05:49:55.373Z,584.00
2023-05-15T05:50:54.400Z,584.00
2023-05-15T05:51:54.728Z,580.00
2023-05-15T05:52:54.449Z,580.00
2023-05-15T05:53:57.707Z,630.00
2023-05-15T05:54:54.466Z,627.00
2023-05-15T05:55:54.467Z,631.00
2023-05-15T05:57:54.468Z,632.00
2023-05-15T05:58:55.257Z,628.00
2023-05-15T06:00:01.848Z,570.00
2023-05-15T06:00:54.442Z,577.00
2023-05-15T06:02:57.821Z,633.00
2023-05-15T06:03:54.538Z,635.00
2023-05-15T06:05:57.596Z,636.00
2023-05-15T06:07:54.398Z,638.00
2023-05-15T06:09:09.972Z,666.00
2023-05-15T06:10:10.062Z,639.00
2023-05-15T06:11:01.754Z,639.00
2023-05-15T06:11:57.957Z,640.00
2023-05-15T06:12:54.373Z,641.00
2023-05-15T06:14:26.179Z,692.00
2023-05-15T06:14:54.323Z,640.00
2023-05-15T06:15:54.314Z,696.00
2023-05-15T06:16:54.365Z,855.00
2023-05-15T06:17:54.354Z,1086.00
2023-05-15T06:18:55.344Z,1410.00
2023-05-15T06:19:54.289Z,1483.00
2023-05-15T06:20:54.279Z,1487.00
2023-05-15T06:21:54.659Z,1481.00
2023-05-15T06:22:57.901Z,1509.00
2023-05-15T06:23:54.251Z,1510.00
2023-05-15T06:24:54.254Z,1517.00
2023-05-15T06:25:54.275Z,1539.00
2023-05-15T06:26:54.665Z,1575.00
2023-05-15T06:28:26.055Z,1645.00
2023-05-15T06:28:54.300Z,1515.00
2023-05-15T06:29:54.222Z,1543.00
2023-05-15T06:30:54.292Z,1589.00
2023-05-15T06:31:54.667Z,1669.00
2023-05-15T06:32:54.733Z,1770.00
2023-05-15T06:33:54.186Z,1810.00
2023-05-15T06:34:54.206Z,1830.00
2023-05-15T06:35:54.167Z,1852.00
2023-05-15T06:36:54.167Z,1880.00
2023-05-15T06:37:55.369Z,1886.00
2023-05-15T06:38:54.175Z,1887.00
2023-05-15T06:39:54.144Z,1901.00
2023-05-15T06:40:54.186Z,1928.00
2023-05-15T06:41:54.238Z,1968.00
2023-05-15T06:42:55.116Z,2031.00
2023-05-15T06:43:54.179Z,2065.00
2023-05-15T06:44:54.135Z,2084.00
2023-05-15T06:45:54.116Z,2098.00
2023-05-15T06:46:54.198Z,2107.00
2023-05-15T06:47:54.141Z,2125.00
2023-05-15T06:48:54.222Z,2134.00
2023-05-15T06:49:55.105Z,2153.00
2023-05-15T06:50:54.237Z,2166.00
2023-05-15T06:51:57.377Z,2189.00
2023-05-15T06:52:54.067Z,2191.00
2023-05-15T06:53:54.194Z,2196.00
2023-05-15T06:54:54.777Z,2208.00
2023-05-15T06:55:54.044Z,2232.00
2023-05-15T06:56:55.178Z,2265.00
2023-05-15T06:57:54.222Z,2287.00
2023-05-15T06:59:54.020Z,2295.00
2023-05-15T07:01:01.491Z,2300.00
2023-05-15T07:01:57.470Z,2297.00
2023-05-15T07:02:55.259Z,2297.00
2023-05-15T07:03:54.197Z,2305.00
2023-05-15T07:04:54.245Z,2321.00
2023-05-15T07:05:55.177Z,2337.00
2023-05-15T07:06:55.140Z,2376.00
2023-05-15T07:07:54.070Z,2380.00
2023-05-15T07:08:54.128Z,2370.00
2023-05-15T07:09:54.194Z,2401.00
2023-05-15T07:10:54.187Z,2400.00
2023-05-15T07:11:54.195Z,2405.00
2023-05-15T07:12:54.240Z,2408.00
2023-05-15T07:13:54.275Z,2411.00
2023-05-15T07:14:54.309Z,2429.00
2023-05-15T07:15:54.689Z,2487.00
2023-05-15T07:16:54.414Z,2555.00
2023-05-15T07:17:54.592Z,2578.00
2023-05-15T07:18:54.516Z,2528.00
2023-05-15T07:19:54.494Z,2555.00
2023-05-15T07:20:54.690Z,2570.00
2023-05-15T07:21:54.570Z,2554.00
2023-05-15T07:22:56.758Z,2616.00
2023-05-15T07:23:54.593Z,2604.00
2023-05-15T07:24:54.574Z,2628.00
2023-05-15T07:25:54.593Z,2623.00
2023-05-15T07:26:58.779Z,2637.00
2023-05-15T07:27:55.473Z,2639.00
2023-05-15T07:28:55.328Z,2642.00
2023-05-15T07:29:54.777Z,2650.00
2023-05-15T07:30:54.813Z,2670.00
2023-05-15T07:31:55.463Z,2668.00
2023-05-15T07:32:55.052Z,2666.00
2023-05-15T07:34:02.250Z,2643.00
2023-05-15T07:34:54.845Z,2645.00
2023-05-15T07:35:55.181Z,2652.00
2023-05-15T07:36:55.208Z,2639.00
2023-05-15T07:37:54.925Z,2623.00
2023-05-15T07:38:58.116Z,2618.00
2023-05-15T07:39:54.959Z,2644.00
2023-05-15T07:40:55.793Z,2644.00
2023-05-15T07:41:55.223Z,2652.00
2023-05-15T07:42:55.198Z,2669.00
2023-05-15T07:43:54.772Z,2700.00
2023-05-15T07:44:54.791Z,2693.00
2023-05-15T07:45:54.829Z,2703.00
2023-05-15T07:46:55.759Z,2711.00
2023-05-15T07:47:55.222Z,2728.00
2023-05-15T07:48:54.731Z,2731.00
2023-05-15T07:49:54.739Z,2730.00
2023-05-15T07:50:54.716Z,2738.00
2023-05-15T07:51:54.736Z,2745.00
2023-05-15T07:52:55.223Z,2780.00
2023-05-15T07:53:54.742Z,2808.00
2023-05-15T07:54:54.774Z,2802.00
2023-05-15T07:55:57.902Z,2814.00
2023-05-15T07:57:55.699Z,2818.00
2023-05-15T07:58:54.704Z,2818.00
2023-05-15T08:00:10.319Z,2829.00
2023-05-15T08:00:54.654Z,2818.00
2023-05-15T08:01:54.690Z,2831.00
2023-05-15T08:02:54.839Z,2830.00
2023-05-15T08:03:54.709Z,2783.00
2023-05-15T08:04:54.631Z,2567.00
2023-05-15T08:05:54.637Z,2358.00
2023-05-15T08:06:54.610Z,2274.00
2023-05-15T08:07:54.726Z,2264.00
2023-05-15T08:08:54.613Z,2163.00
2023-05-15T08:09:54.599Z,2012.00
2023-05-15T08:10:54.622Z,1946.00
2023-05-15T08:11:54.597Z,1899.00
2023-05-15T08:12:54.710Z,1844.00
2023-05-15T08:13:55.614Z,1753.00
2023-05-15T08:14:54.585Z,1743.00
2023-05-15T08:15:54.640Z,1663.00
2023-05-15T08:16:54.561Z,1708.00
2023-05-15T08:17:54.872Z,1668.00
2023-05-15T08:18:54.576Z,1626.00
2023-05-15T08:19:57.736Z,1603.00
2023-05-15T08:20:57.713Z,1604.00
2023-05-15T08:21:54.520Z,1588.00
2023-05-15T08:22:54.510Z,1563.00
2023-05-15T08:23:54.539Z,1546.00
2023-05-15T08:24:54.490Z,1538.00
2023-05-15T08:25:54.493Z,1520.00
2023-05-15T08:26:54.499Z,1450.00
2023-05-15T08:27:54.710Z,1460.00
2023-05-15T08:28:54.462Z,1434.00
2023-05-15T08:29:54.738Z,1458.00
2023-05-15T08:30:54.475Z,1406.00
2023-05-15T08:31:54.446Z,1385.00
2023-05-15T08:32:54.518Z,1416.00
2023-05-15T08:33:54.439Z,1387.00
2023-05-15T08:34:54.721Z,1351.00
2023-05-15T08:35:54.468Z,1328.00
2023-05-15T08:36:54.415Z,1353.00
2023-05-15T08:37:54.416Z,1355.00
2023-05-15T08:38:54.400Z,1327.00
2023-05-15T08:39:54.718Z,1362.00
2023-05-15T08:40:54.412Z,1389.00
2023-05-15T08:41:54.368Z,1293.00
2023-05-15T08:42:54.414Z,1239.00
2023-05-15T08:44:10.036Z,1190.00
2023-05-15T08:44:54.733Z,1191.00
2023-05-15T08:45:57.565Z,1192.00
2023-05-15T08:46:54.419Z,1192.00
2023-05-15T08:48:02.219Z,1208.00
2023-05-15T08:49:09.966Z,1197.00
2023-05-15T08:49:54.374Z,1199.00
2023-05-15T08:50:57.518Z,1233.00
2023-05-15T08:51:54.311Z,1200.00
2023-05-15T08:52:54.726Z,1234.00
2023-05-15T08:53:54.302Z,1298.00
2023-05-15T08:54:54.310Z,1381.00
2023-05-15T08:55:54.283Z,1498.00
2023-05-15T08:56:57.477Z,1542.00
2023-05-15T08:57:57.944Z,1543.00
2023-05-15T08:58:55.245Z,1545.00
2023-05-15T08:59:54.266Z,1553.00
2023-05-15T09:00:54.599Z,1581.00
2023-05-15T09:01:54.641Z,1594.00
2023-05-15T09:02:54.724Z,1642.00
2023-05-15T09:03:54.335Z,1663.00
2023-05-15T09:04:54.628Z,1655.00
2023-05-15T09:05:54.198Z,1692.00
2023-05-15T09:06:54.225Z,1689.00
2023-05-15T09:07:54.182Z,1681.00
2023-05-15T09:08:57.397Z,1714.00
2023-05-15T09:09:54.632Z,1715.00
2023-05-15T09:10:54.159Z,1717.00
2023-05-15T09:11:54.167Z,1725.00
2023-05-15T09:12:54.151Z,1753.00
2023-05-15T09:13:54.170Z,1777.00
2023-05-15T09:14:54.599Z,1796.00
2023-05-15T09:15:54.151Z,1793.00
2023-05-15T09:16:54.172Z,1824.00
2023-05-15T09:17:54.161Z,1806.00
2023-05-15T09:18:54.169Z,1821.00
2023-05-15T09:19:54.131Z,1855.00
2023-05-15T09:20:56.069Z,1842.00
2023-05-15T09:21:54.090Z,1843.00
2023-05-15T09:22:54.588Z,1849.00
2023-05-15T09:23:54.122Z,1856.00
2023-05-15T09:24:54.743Z,1876.00
2023-05-15T09:25:55.125Z,1926.00
2023-05-15T09:26:54.456Z,1934.00
2023-05-15T09:27:54.053Z,1930.00
2023-05-15T09:28:54.056Z,1961.00
2023-05-15T09:29:54.074Z,1978.00
2023-05-15T09:30:54.536Z,1982.00
2023-05-15T09:31:54.139Z,2000.00
2023-05-15T09:32:57.364Z,2013.00
2023-05-15T09:33:54.255Z,2014.00
2023-05-15T09:35:01.115Z,2021.00
2023-05-15T09:35:54.137Z,2018.00
2023-05-15T09:37:09.728Z,2032.00
2023-05-15T09:37:54.271Z,2019.00
2023-05-15T09:38:54.098Z,2038.00
2023-05-15T09:39:54.265Z,2074.00
2023-05-15T09:40:54.104Z,2126.00
2023-05-15T09:41:54.082Z,2188.00
2023-05-15T09:42:54.621Z,2195.00
2023-05-15T09:43:54.442Z,2183.00
2023-05-15T09:44:54.058Z,2171.00
2023-05-15T09:45:54.509Z,2174.00
2023-05-15T09:46:54.103Z,2104.00
2023-05-15T09:47:54.435Z,2086.00
2023-05-15T09:48:54.045Z,2056.00
2023-05-15T09:49:54.022Z,2001.00
2023-05-15T09:50:55.017Z,1929.00
2023-05-15T09:51:54.013Z,1884.00
2023-05-15T09:52:54.007Z,1899.00
2023-05-15T09:53:54.014Z,1875.00
2023-05-15T09:54:54.033Z,1827.00
2023-05-15T09:55:54.273Z,1754.00
2023-05-15T09:56:54.555Z,1699.00
2023-05-15T09:57:54.277Z,1726.00
2023-05-15T09:58:53.973Z,1637.00
2023-05-15T09:59:53.958Z,1652.00
2023-05-15T10:00:53.966Z,1604.00
2023-05-15T10:01:54.018Z,1565.00
2023-05-15T10:02:54.009Z,1539.00
2023-05-15T10:03:57.131Z,1552.00
2023-05-15T10:04:53.962Z,1530.00
2023-05-15T10:05:53.940Z,1471.00
2023-05-15T10:06:53.912Z,1484.00
2023-05-15T10:07:54.298Z,1515.00
2023-05-15T10:08:53.921Z,1451.00
2023-05-15T10:09:53.901Z,1455.00
2023-05-15T10:10:53.879Z,1498.00
2023-05-15T10:11:54.285Z,1490.00
2023-05-15T10:12:54.279Z,1464.00
2023-05-15T10:13:53.866Z,1455.00
2023-05-15T10:14:53.876Z,1428.00
2023-05-15T10:15:53.970Z,1426.00
2023-05-15T10:16:53.849Z,1425.00
2023-05-15T10:17:54.469Z,1403.00
2023-05-15T10:18:53.894Z,1343.00
2023-05-15T10:19:58.514Z,1301.00
2023-05-15T10:20:53.832Z,1303.00
2023-05-15T10:21:53.811Z,1310.00
2023-05-15T10:22:54.321Z,1266.00
2023-05-15T10:23:54.298Z,1254.00
2023-05-15T10:24:53.787Z,1055.00
2023-05-15T10:25:53.785Z,1027.00
2023-05-15T10:26:53.773Z,1067.00
2023-05-15T10:27:53.783Z,1084.00
2023-05-15T10:28:53.759Z,1076.00
2023-05-15T10:29:53.788Z,1095.00
2023-05-15T10:31:01.279Z,1061.00
2023-05-15T10:31:54.762Z,901.00
2023-05-15T10:32:53.800Z,725.00
2023-05-15T10:33:53.741Z,633.00
2023-05-15T10:34:53.714Z,601.00
2023-05-15T10:35:53.700Z,579.00
2023-05-15T10:36:53.697Z,622.00
2023-05-15T10:37:53.699Z,648.00
2023-05-15T10:38:53.702Z,666.00
2023-05-15T10:39:53.666Z,689.00
2023-05-15T10:40:59.883Z,700.00
2023-05-15T10:41:53.818Z,701.00
2023-05-15T10:42:53.659Z,709.00
2023-05-15T10:43:53.650Z,723.00
2023-05-15T10:44:53.657Z,757.00
2023-05-15T10:45:53.644Z,818.00
2023-05-15T10:46:53.682Z,832.00
2023-05-15T10:47:53.659Z,823.00
2023-05-15T10:48:53.910Z,850.00
2023-05-15T10:49:53.628Z,840.00
2023-05-15T10:50:53.612Z,835.00
2023-05-15T10:51:53.589Z,842.00
2023-05-15T10:52:53.617Z,868.00
2023-05-15T10:53:53.802Z,892.00
2023-05-15T10:54:53.570Z,918.00
2023-05-15T10:55:53.613Z,902.00
2023-05-15T10:56:53.820Z,884.00
2023-05-15T10:57:53.545Z,1029.00
2023-05-15T10:58:53.537Z,1037.00
2023-05-15T10:59:53.535Z,980.00
2023-05-15T11:00:53.613Z,979.00
2023-05-15T11:01:53.799Z,1066.00
2023-05-15T11:02:53.636Z,1037.00
2023-05-15T11:03:55.247Z,1062.00
2023-05-15T11:04:53.499Z,1089.00
2023-05-15T11:05:53.510Z,1033.00
2023-05-15T11:06:53.493Z,948.00
2023-05-15T11:07:53.476Z,965.00
2023-05-15T11:08:53.850Z,1001.00
2023-05-15T11:09:53.531Z,1057.00
2023-05-15T11:10:54.495Z,1107.00
2023-05-15T11:11:53.452Z,1115.00
2023-05-15T11:12:53.434Z,1159.00
2023-05-15T11:13:53.805Z,1172.00
2023-05-15T11:14:53.426Z,1188.00
2023-05-15T11:15:53.429Z,1166.00
2023-05-15T11:16:53.719Z,1222.00
2023-05-15T11:17:53.457Z,1238.00
2023-05-15T11:18:53.844Z,1217.00
2023-05-15T11:19:53.382Z,1226.00
2023-05-15T11:20:53.881Z,1276.00
2023-05-15T11:21:53.566Z,1278.00
2023-05-15T11:22:53.523Z,1297.00
2023-05-15T11:23:53.572Z,1346.00
2023-05-15T11:24:53.985Z,1390.00
2023-05-15T11:25:54.849Z,1435.00
2023-05-15T11:26:53.624Z,1460.00
2023-05-15T11:27:53.765Z,1491.00
2023-05-15T11:28:53.642Z,1515.00
2023-05-15T11:29:53.638Z,1548.00
2023-05-15T11:30:53.747Z,1584.00
2023-05-15T11:31:53.693Z,1618.00
2023-05-15T11:32:53.825Z,1640.00
2023-05-15T11:33:53.893Z,1673.00
2023-05-15T11:34:54.764Z,1688.00
2023-05-15T11:35:53.928Z,1698.00
2023-05-15T11:36:54.312Z,1739.00
2023-05-15T11:37:54.105Z,1760.00
2023-05-15T11:38:54.074Z,1793.00
2023-05-15T11:39:54.320Z,1811.00
2023-05-15T11:40:54.158Z,1838.00
2023-05-15T11:41:54.350Z,1864.00
2023-05-15T11:42:54.255Z,1888.00
2023-05-15T11:43:54.323Z,1894.00
2023-05-15T11:44:54.368Z,1927.00
2023-05-15T11:45:54.392Z,1928.00
2023-05-15T11:46:54.520Z,1950.00
2023-05-15T11:47:54.881Z,1974.00
2023-05-15T11:48:54.828Z,1993.00
2023-05-15T11:49:54.531Z,2026.00
2023-05-15T11:50:54.570Z,2044.00
2023-05-15T11:51:54.622Z,2061.00
2023-05-15T11:52:54.612Z,2064.00
2023-05-15T11:53:54.856Z,2086.00
2023-05-15T11:54:54.649Z,2080.00
2023-05-15T11:55:54.701Z,2105.00
2023-05-15T11:56:54.672Z,2121.00
2023-05-15T11:57:54.702Z,2131.00
2023-05-15T11:58:54.698Z,2150.00
2023-05-15T11:59:54.703Z,2151.00
2023-05-15T12:00:54.717Z,2178.00
2023-05-15T12:01:54.717Z,2197.00
2023-05-15T12:02:54.788Z,2219.00
2023-05-15T12:03:55.340Z,2207.00
2023-05-15T12:04:54.730Z,2244.00
2023-05-15T12:05:59.469Z,2246.00
2023-05-15T12:06:54.716Z,2248.00
2023-05-15T12:07:54.694Z,2257.00
2023-05-15T12:08:54.839Z,2266.00
2023-05-15T12:09:54.715Z,2289.00
2023-05-15T12:10:54.725Z,2311.00
2023-05-15T12:11:54.671Z,2343.00
2023-05-15T12:13:10.284Z,2349.00
2023-05-15T12:13:55.078Z,2352.00
2023-05-15T12:14:54.646Z,2352.00
2023-05-15T12:15:54.648Z,2358.00
2023-05-15T12:16:54.712Z,2373.00
2023-05-15T12:17:54.661Z,2387.00
2023-05-15T12:18:55.315Z,2424.00
2023-05-15T12:19:54.622Z,2432.00
2023-05-15T12:20:54.650Z,2446.00
2023-05-15T12:21:54.625Z,2446.00
2023-05-15T12:22:54.615Z,2440.00
2023-05-15T12:24:06.514Z,2442.00
2023-05-15T12:24:54.598Z,2444.00